sensor_id;sensor_type;location;lat;lon;timestamp;temperature;humidity
78184;DHT22;67442;44.570;18.610;2024-01-27T00:00:08;3.80;99.90
78184;DHT22;67442;44.570;18.610;2024-01-27T00:02:37;3.70;99.90
78184;DHT22;67442;44.570;18.610;2024-01-27T00:05:05;4.00;99.90
78184;DHT22;67442;44.570;18.610;2024-01-27T00:07:34;3.90;99.90
78184;DHT22;67442;44.570;18.610;2024-01-27T00:10:03;3.80;99.90
78184;DHT22;67442;44.570;18.610;2024-01-27T00:12:30;3.80;99.90
78184;DHT22;67442;44.570;18.610;2024-01-27T00:14:58;3.70;99.90
78184;DHT22;67442;44.570;18.610;2024-01-27T00:17:29;4.00;99.90
78184;DHT22;67442;44.570;18.610;2024-01-27T00:20:00;4.00;99.90
78184;DHT22;67442;44.570;18.610;2024-01-27T00:22:32;4.10;99.90
78184;DHT22;67442;44.570;18.610;2024-01-27T00:24:59;4.20;99.90
78184;DHT22;67442;44.570;18.610;2024-01-27T00:27:30;3.90;99.90
78184;DHT22;67442;44.570;18.610;2024-01-27T00:29:59;3.80;99.90
78184;DHT22;67442;44.570;18.610;2024-01-27T00:32:26;3.80;99.90
78184;DHT22;67442;44.570;18.610;2024-01-27T00:34:53;3.70;99.90
78184;DHT22;67442;44.570;18.610;2024-01-27T00:37:24;3.40;99.90
78184;DHT22;67442;44.570;18.610;2024-01-27T00:39:52;3.30;99.90
78184;DHT22;67442;44.570;18.610;2024-01-27T00:42:23;3.40;99.90
78184;DHT22;67442;44.570;18.610;2024-01-27T00:44:55;3.60;99.90
78184;DHT22;67442;44.570;18.610;2024-01-27T00:47:22;3.90;99.90
78184;DHT22;67442;44.570;18.610;2024-01-27T00:49:50;4.30;99.90
78184;DHT22;67442;44.570;18.610;2024-01-27T00:52:23;4.50;99.90
78184;DHT22;67442;44.570;18.610;2024-01-27T00:54:55;4.50;99.90
78184;DHT22;67442;44.570;18.610;2024-01-27T00:57:26;4.50;99.90
78184;DHT22;67442;44.570;18.610;2024-01-27T00:59:53;4.20;99.90
78184;DHT22;67442;44.570;18.610;2024-01-27T01:02:20;4.30;99.90
78184;DHT22;67442;44.570;18.610;2024-01-27T01:04:48;4.00;99.90
78184;DHT22;67442;44.570;18.610;2024-01-27T01:07:16;3.90;99.90
78184;DHT22;67442;44.570;18.610;2024-01-27T01:09:43;3.80;99.90
78184;DHT22;67442;44.570;18.610;2024-01-27T01:12:10;3.70;99.90
78184;DHT22;67442;44.570;18.610;2024-01-27T01:14:38;3.90;99.90
78184;DHT22;67442;44.570;18.610;2024-01-27T01:17:09;3.80;99.90
78184;DHT22;67442;44.570;18.610;2024-01-27T01:19:37;3.90;99.90
78184;DHT22;67442;44.570;18.610;2024-01-27T01:22:05;3.90;99.90
78184;DHT22;67442;44.570;18.610;2024-01-27T01:24:33;3.90;99.90
78184;DHT22;67442;44.570;18.610;2024-01-27T01:27:01;3.70;99.90
78184;DHT22;67442;44.570;18.610;2024-01-27T01:29:28;3.60;99.90
78184;DHT22;67442;44.570;18.610;2024-01-27T01:31:56;3.50;99.90
78184;DHT22;67442;44.570;18.610;2024-01-27T01:34:28;3.50;99.90
78184;DHT22;67442;44.570;18.610;2024-01-27T01:36:55;4.10;99.90
78184;DHT22;67442;44.570;18.610;2024-01-27T01:39:26;3.90;99.90
78184;DHT22;67442;44.570;18.610;2024-01-27T01:41:54;4.00;99.90
78184;DHT22;67442;44.570;18.610;2024-01-27T01:44:21;4.10;99.90
78184;DHT22;67442;44.570;18.610;2024-01-27T01:46:52;4.50;99.90
78184;DHT22;67442;44.570;18.610;2024-01-27T01:49:20;4.20;99.90
78184;DHT22;67442;44.570;18.610;2024-01-27T01:51:47;4.10;99.90
78184;DHT22;67442;44.570;18.610;2024-01-27T01:54:16;4.00;99.90
78184;DHT22;67442;44.570;18.610;2024-01-27T01:56:43;4.00;99.90
78184;DHT22;67442;44.570;18.610;2024-01-27T01:59:14;4.00;99.90
78184;DHT22;67442;44.570;18.610;2024-01-27T02:01:42;4.10;99.90
78184;DHT22;67442;44.570;18.610;2024-01-27T02:04:10;4.20;99.90
78184;DHT22;67442;44.570;18.610;2024-01-27T02:06:41;4.20;99.90
78184;DHT22;67442;44.570;18.610;2024-01-27T02:09:12;4.20;99.90
78184;DHT22;67442;44.570;18.610;2024-01-27T02:11:40;4.10;99.90
78184;DHT22;67442;44.570;18.610;2024-01-27T02:14:11;4.00;99.90
78184;DHT22;67442;44.570;18.610;2024-01-27T02:16:39;4.40;99.90
78184;DHT22;67442;44.570;18.610;2024-01-27T02:19:07;4.50;99.90
78184;DHT22;67442;44.570;18.610;2024-01-27T02:21:34;5.40;99.90
78184;DHT22;67442;44.570;18.610;2024-01-27T02:24:02;7.00;99.90
78184;DHT22;67442;44.570;18.610;2024-01-27T02:26:29;7.60;99.90
78184;DHT22;67442;44.570;18.610;2024-01-27T02:28:57;7.90;99.90
78184;DHT22;67442;44.570;18.610;2024-01-27T02:31:28;8.00;99.90
78184;DHT22;67442;44.570;18.610;2024-01-27T02:33:56;7.90;99.90
78184;DHT22;67442;44.570;18.610;2024-01-27T02:36:23;7.80;99.90
78184;DHT22;67442;44.570;18.610;2024-01-27T02:38:54;7.80;99.90
78184;DHT22;67442;44.570;18.610;2024-01-27T02:41:22;7.70;99.90
78184;DHT22;67442;44.570;18.610;2024-01-27T02:43:54;7.70;99.90
78184;DHT22;67442;44.570;18.610;2024-01-27T02:46:25;7.80;99.90
78184;DHT22;67442;44.570;18.610;2024-01-27T02:48:52;7.80;99.90
78184;DHT22;67442;44.570;18.610;2024-01-27T02:51:20;7.90;99.90
78184;DHT22;67442;44.570;18.610;2024-01-27T02:53:47;7.90;99.90
78184;DHT22;67442;44.570;18.610;2024-01-27T02:56:16;8.00;99.90
78184;DHT22;67442;44.570;18.610;2024-01-27T02:58:47;7.90;99.90
78184;DHT22;67442;44.570;18.610;2024-01-27T03:01:18;7.80;99.90
78184;DHT22;67442;44.570;18.610;2024-01-27T03:03:45;7.90;99.90
78184;DHT22;67442;44.570;18.610;2024-01-27T03:06:13;8.00;99.90
78184;DHT22;67442;44.570;18.610;2024-01-27T03:08:40;8.00;99.60
78184;DHT22;67442;44.570;18.610;2024-01-27T03:11:08;8.10;98.10
78184;DHT22;67442;44.570;18.610;2024-01-27T03:13:36;8.10;98.60
78184;DHT22;67442;44.570;18.610;2024-01-27T03:16:08;8.20;98.10
78184;DHT22;67442;44.570;18.610;2024-01-27T03:18:35;8.20;97.50
78184;DHT22;67442;44.570;18.610;2024-01-27T03:21:06;8.20;97.10
78184;DHT22;67442;44.570;18.610;2024-01-27T03:23:35;8.10;96.40
78184;DHT22;67442;44.570;18.610;2024-01-27T03:26:04;8.10;97.00
78184;DHT22;67442;44.570;18.610;2024-01-27T03:28:34;8.00;97.60
78184;DHT22;67442;44.570;18.610;2024-01-27T03:31:02;8.10;98.30
78184;DHT22;67442;44.570;18.610;2024-01-27T03:33:30;8.00;98.50
78184;DHT22;67442;44.570;18.610;2024-01-27T03:35:56;7.90;98.40
78184;DHT22;67442;44.570;18.610;2024-01-27T03:38:28;7.90;99.20
78184;DHT22;67442;44.570;18.610;2024-01-27T03:40:55;7.60;99.90
78184;DHT22;67442;44.570;18.610;2024-01-27T03:43:28;7.50;99.90
78184;DHT22;67442;44.570;18.610;2024-01-27T03:45:59;7.50;99.90
78184;DHT22;67442;44.570;18.610;2024-01-27T03:48:30;7.50;99.90
78184;DHT22;67442;44.570;18.610;2024-01-27T03:51:01;7.50;99.70
78184;DHT22;67442;44.570;18.610;2024-01-27T03:53:29;7.60;99.90
78184;DHT22;67442;44.570;18.610;2024-01-27T03:55:56;7.40;99.90
78184;DHT22;67442;44.570;18.610;2024-01-27T03:58:28;7.40;99.90
78184;DHT22;67442;44.570;18.610;2024-01-27T04:00:57;7.10;99.90
78184;DHT22;67442;44.570;18.610;2024-01-27T04:03:24;6.90;99.90
78184;DHT22;67442;44.570;18.610;2024-01-27T04:05:52;6.80;99.90
78184;DHT22;67442;44.570;18.610;2024-01-27T04:08:19;6.60;99.90
78184;DHT22;67442;44.570;18.610;2024-01-27T04:10:47;6.40;99.90
78184;DHT22;67442;44.570;18.610;2024-01-27T04:13:19;6.30;99.90
78184;DHT22;67442;44.570;18.610;2024-01-27T04:15:50;6.20;99.90
78184;DHT22;67442;44.570;18.610;2024-01-27T04:18:20;6.00;99.90
78184;DHT22;67442;44.570;18.610;2024-01-27T04:20:48;5.70;99.90
78184;DHT22;67442;44.570;18.610;2024-01-27T04:23:19;5.50;99.90
78184;DHT22;67442;44.570;18.610;2024-01-27T04:25:46;5.30;99.90
78184;DHT22;67442;44.570;18.610;2024-01-27T04:28:18;5.20;99.90
78184;DHT22;67442;44.570;18.610;2024-01-27T04:30:45;4.90;99.90
78184;DHT22;67442;44.570;18.610;2024-01-27T04:33:16;5.00;99.90
78184;DHT22;67442;44.570;18.610;2024-01-27T04:35:44;5.00;99.90
78184;DHT22;67442;44.570;18.610;2024-01-27T04:38:15;4.70;99.90
78184;DHT22;67442;44.570;18.610;2024-01-27T04:40:42;4.40;99.90
78184;DHT22;67442;44.570;18.610;2024-01-27T04:43:16;4.30;99.90
78184;DHT22;67442;44.570;18.610;2024-01-27T04:45:44;4.40;99.90
78184;DHT22;67442;44.570;18.610;2024-01-27T04:48:12;4.20;99.90
78184;DHT22;67442;44.570;18.610;2024-01-27T04:50:40;4.10;99.90
78184;DHT22;67442;44.570;18.610;2024-01-27T04:53:08;4.00;99.90
78184;DHT22;67442;44.570;18.610;2024-01-27T04:55:35;4.00;99.90
78184;DHT22;67442;44.570;18.610;2024-01-27T04:58:03;4.00;99.90
78184;DHT22;67442;44.570;18.610;2024-01-27T05:00:34;3.70;99.90
78184;DHT22;67442;44.570;18.610;2024-01-27T05:03:01;3.60;99.90
78184;DHT22;67442;44.570;18.610;2024-01-27T05:05:31;3.20;99.90
78184;DHT22;67442;44.570;18.610;2024-01-27T05:07:59;3.00;99.90
78184;DHT22;67442;44.570;18.610;2024-01-27T05:10:27;3.00;99.90
78184;DHT22;67442;44.570;18.610;2024-01-27T05:12:54;3.00;99.90
78184;DHT22;67442;44.570;18.610;2024-01-27T05:15:26;2.70;99.90
78184;DHT22;67442;44.570;18.610;2024-01-27T05:17:54;2.40;99.90
78184;DHT22;67442;44.570;18.610;2024-01-27T05:20:25;2.40;99.90
78184;DHT22;67442;44.570;18.610;2024-01-27T05:22:56;2.20;99.90
78184;DHT22;67442;44.570;18.610;2024-01-27T05:25:24;2.30;99.90
78184;DHT22;67442;44.570;18.610;2024-01-27T05:27:51;2.40;99.90
78184;DHT22;67442;44.570;18.610;2024-01-27T05:30:23;2.20;99.90
78184;DHT22;67442;44.570;18.610;2024-01-27T05:32:54;2.20;99.90
78184;DHT22;67442;44.570;18.610;2024-01-27T05:35:26;2.10;99.90
78184;DHT22;67442;44.570;18.610;2024-01-27T05:37:53;1.80;99.90
78184;DHT22;67442;44.570;18.610;2024-01-27T05:40:25;1.70;99.90
78184;DHT22;67442;44.570;18.610;2024-01-27T05:42:52;1.70;99.90
78184;DHT22;67442;44.570;18.610;2024-01-27T05:45:23;1.80;99.90
78184;DHT22;67442;44.570;18.610;2024-01-27T05:47:53;1.60;99.90
78184;DHT22;67442;44.570;18.610;2024-01-27T05:50:21;1.80;99.90
78184;DHT22;67442;44.570;18.610;2024-01-27T05:52:48;1.50;99.90
78184;DHT22;67442;44.570;18.610;2024-01-27T05:55:16;1.10;99.90
78184;DHT22;67442;44.570;18.610;2024-01-27T05:57:44;0.90;99.90
78184;DHT22;67442;44.570;18.610;2024-01-27T06:00:13;0.80;99.90
78184;DHT22;67442;44.570;18.610;2024-01-27T06:02:41;0.80;99.90
78184;DHT22;67442;44.570;18.610;2024-01-27T06:05:09;0.80;99.90
78184;DHT22;67442;44.570;18.610;2024-01-27T06:07:40;0.70;99.90
78184;DHT22;67442;44.570;18.610;2024-01-27T06:10:08;0.80;99.90
78184;DHT22;67442;44.570;18.610;2024-01-27T06:12:37;0.90;99.90
78184;DHT22;67442;44.570;18.610;2024-01-27T06:15:09;1.00;99.90
78184;DHT22;67442;44.570;18.610;2024-01-27T06:17:37;0.90;99.90
78184;DHT22;67442;44.570;18.610;2024-01-27T06:20:04;0.70;99.90
78184;DHT22;67442;44.570;18.610;2024-01-27T06:22:34;0.80;99.90
78184;DHT22;67442;44.570;18.610;2024-01-27T06:25:01;0.60;99.90
78184;DHT22;67442;44.570;18.610;2024-01-27T06:27:29;0.60;99.90
78184;DHT22;67442;44.570;18.610;2024-01-27T06:30:02;0.50;99.90
78184;DHT22;67442;44.570;18.610;2024-01-27T06:32:30;0.40;99.90
78184;DHT22;67442;44.570;18.610;2024-01-27T06:35:01;0.40;99.90
78184;DHT22;67442;44.570;18.610;2024-01-27T06:37:29;0.50;99.90
78184;DHT22;67442;44.570;18.610;2024-01-27T06:40:00;0.60;99.90
78184;DHT22;67442;44.570;18.610;2024-01-27T06:42:28;0.50;99.90
78184;DHT22;67442;44.570;18.610;2024-01-27T06:44:55;0.50;99.90
78184;DHT22;67442;44.570;18.610;2024-01-27T06:47:23;0.60;99.90
78184;DHT22;67442;44.570;18.610;2024-01-27T06:49:54;0.40;99.90
78184;DHT22;67442;44.570;18.610;2024-01-27T06:52:22;0.20;99.90
78184;DHT22;67442;44.570;18.610;2024-01-27T06:54:53;0.30;99.90
78184;DHT22;67442;44.570;18.610;2024-01-27T06:57:24;0.40;99.90
78184;DHT22;67442;44.570;18.610;2024-01-27T06:59:51;0.20;99.90
78184;DHT22;67442;44.570;18.610;2024-01-27T07:02:25;0.40;99.90
78184;DHT22;67442;44.570;18.610;2024-01-27T07:04:58;0.40;99.90
78184;DHT22;67442;44.570;18.610;2024-01-27T07:07:28;0.60;99.90
78184;DHT22;67442;44.570;18.610;2024-01-27T07:09:55;1.10;99.90
78184;DHT22;67442;44.570;18.610;2024-01-27T07:12:23;1.20;99.90
78184;DHT22;67442;44.570;18.610;2024-01-27T07:14:54;1.60;99.90
78184;DHT22;67442;44.570;18.610;2024-01-27T07:17:22;1.70;99.90
78184;DHT22;67442;44.570;18.610;2024-01-27T07:19:53;1.90;99.90
78184;DHT22;67442;44.570;18.610;2024-01-27T07:22:25;1.80;99.90
78184;DHT22;67442;44.570;18.610;2024-01-27T07:24:52;1.70;99.90
78184;DHT22;67442;44.570;18.610;2024-01-27T07:27:24;1.60;99.90
78184;DHT22;67442;44.570;18.610;2024-01-27T07:29:52;1.70;99.90
78184;DHT22;67442;44.570;18.610;2024-01-27T07:32:19;1.80;99.90
78184;DHT22;67442;44.570;18.610;2024-01-27T07:34:48;1.80;99.90
78184;DHT22;67442;44.570;18.610;2024-01-27T07:37:16;2.10;99.90
78184;DHT22;67442;44.570;18.610;2024-01-27T07:39:43;2.20;99.90
78184;DHT22;67442;44.570;18.610;2024-01-27T07:42:11;2.30;99.90
78184;DHT22;67442;44.570;18.610;2024-01-27T07:44:39;2.50;99.90
78184;DHT22;67442;44.570;18.610;2024-01-27T07:47:11;2.80;99.90
78184;DHT22;67442;44.570;18.610;2024-01-27T07:49:43;2.80;99.90
78184;DHT22;67442;44.570;18.610;2024-01-27T07:52:14;3.20;99.90
78184;DHT22;67442;44.570;18.610;2024-01-27T07:54:42;3.40;99.90
78184;DHT22;67442;44.570;18.610;2024-01-27T07:57:14;3.80;99.90
78184;DHT22;67442;44.570;18.610;2024-01-27T07:59:41;4.00;99.90
78184;DHT22;67442;44.570;18.610;2024-01-27T08:02:08;4.10;99.90
78184;DHT22;67442;44.570;18.610;2024-01-27T08:04:37;4.30;99.90
78184;DHT22;67442;44.570;18.610;2024-01-27T08:07:04;4.70;99.90
78184;DHT22;67442;44.570;18.610;2024-01-27T08:09:36;5.10;99.90
78184;DHT22;67442;44.570;18.610;2024-01-27T08:12:08;5.50;99.90
78184;DHT22;67442;44.570;18.610;2024-01-27T08:14:35;5.90;99.90
78184;DHT22;67442;44.570;18.610;2024-01-27T08:17:02;6.20;99.90
78184;DHT22;67442;44.570;18.610;2024-01-27T08:19:30;6.50;99.90
78184;DHT22;67442;44.570;18.610;2024-01-27T08:22:01;6.80;98.30
78184;DHT22;67442;44.570;18.610;2024-01-27T08:24:29;7.00;94.90
78184;DHT22;67442;44.570;18.610;2024-01-27T08:26:59;7.10;94.50
78184;DHT22;67442;44.570;18.610;2024-01-27T08:29:28;7.20;93.80
78184;DHT22;67442;44.570;18.610;2024-01-27T08:31:55;7.30;94.40
78184;DHT22;67442;44.570;18.610;2024-01-27T08:34:23;7.40;95.10
78184;DHT22;67442;44.570;18.610;2024-01-27T08:36:51;7.50;91.30
78184;DHT22;67442;44.570;18.610;2024-01-27T08:39:18;7.60;92.10
78184;DHT22;67442;44.570;18.610;2024-01-27T08:41:45;7.80;90.30
78184;DHT22;67442;44.570;18.610;2024-01-27T08:44:16;7.90;86.50
78184;DHT22;67442;44.570;18.610;2024-01-27T08:46:44;8.00;79.00
78184;DHT22;67442;44.570;18.610;2024-01-27T08:49:17;8.10;76.70
78184;DHT22;67442;44.570;18.610;2024-01-27T08:51:45;8.10;80.10
78184;DHT22;67442;44.570;18.610;2024-01-27T08:54:16;8.10;82.40
78184;DHT22;67442;44.570;18.610;2024-01-27T08:56:44;8.00;71.90
78184;DHT22;67442;44.570;18.610;2024-01-27T08:59:15;8.10;70.10
78184;DHT22;67442;44.570;18.610;2024-01-27T09:01:46;8.30;70.40
78184;DHT22;67442;44.570;18.610;2024-01-27T09:04:17;8.30;70.80
78184;DHT22;67442;44.570;18.610;2024-01-27T09:06:44;8.40;74.60
78184;DHT22;67442;44.570;18.610;2024-01-27T09:09:16;8.50;72.70
78184;DHT22;67442;44.570;18.610;2024-01-27T09:11:44;8.60;85.10
78184;DHT22;67442;44.570;18.610;2024-01-27T09:14:12;8.60;81.10
78184;DHT22;67442;44.570;18.610;2024-01-27T09:16:44;8.70;75.60
78184;DHT22;67442;44.570;18.610;2024-01-27T09:19:13;8.70;83.20
78184;DHT22;67442;44.570;18.610;2024-01-27T09:21:40;8.80;84.60
78184;DHT22;67442;44.570;18.610;2024-01-27T09:24:11;8.90;80.00
78184;DHT22;67442;44.570;18.610;2024-01-27T09:26:42;9.00;78.60
78184;DHT22;67442;44.570;18.610;2024-01-27T09:29:13;8.90;63.30
78184;DHT22;67442;44.570;18.610;2024-01-27T09:31:44;8.90;64.70
78184;DHT22;67442;44.570;18.610;2024-01-27T09:34:11;8.90;63.60
78184;DHT22;67442;44.570;18.610;2024-01-27T09:36:39;9.00;63.90
78184;DHT22;67442;44.570;18.610;2024-01-27T09:39:07;9.00;64.30
78184;DHT22;67442;44.570;18.610;2024-01-27T09:41:37;9.20;62.40
78184;DHT22;67442;44.570;18.610;2024-01-27T09:44:04;9.20;61.90
78184;DHT22;67442;44.570;18.610;2024-01-27T09:46:32;9.20;60.90
78184;DHT22;67442;44.570;18.610;2024-01-27T09:48:58;9.30;61.60
78184;DHT22;67442;44.570;18.610;2024-01-27T09:51:26;9.10;59.30
78184;DHT22;67442;44.570;18.610;2024-01-27T09:53:53;9.10;63.00
78184;DHT22;67442;44.570;18.610;2024-01-27T09:56:21;9.10;63.40
78184;DHT22;67442;44.570;18.610;2024-01-27T09:58:49;9.30;62.70
78184;DHT22;67442;44.570;18.610;2024-01-27T10:01:20;9.40;61.40
78184;DHT22;67442;44.570;18.610;2024-01-27T10:03:49;9.50;60.60
78184;DHT22;67442;44.570;18.610;2024-01-27T10:06:16;9.50;60.00
78184;DHT22;67442;44.570;18.610;2024-01-27T10:08:53;9.70;70.60
78184;DHT22;67442;44.570;18.610;2024-01-27T10:11:24;9.60;63.00
78184;DHT22;67442;44.570;18.610;2024-01-27T10:13:55;9.80;61.40
78184;DHT22;67442;44.570;18.610;2024-01-27T10:16:23;9.70;60.90
78184;DHT22;67442;44.570;18.610;2024-01-27T10:19:03;9.50;62.00
78184;DHT22;67442;44.570;18.610;2024-01-27T10:21:29;9.30;63.30
78184;DHT22;67442;44.570;18.610;2024-01-27T10:23:57;9.10;62.30
78184;DHT22;67442;44.570;18.610;2024-01-27T10:26:25;9.20;63.60
78184;DHT22;67442;44.570;18.610;2024-01-27T10:28:55;9.30;62.00
78184;DHT22;67442;44.570;18.610;2024-01-27T10:31:29;9.30;61.80
78184;DHT22;67442;44.570;18.610;2024-01-27T10:33:56;9.30;61.10
78184;DHT22;67442;44.570;18.610;2024-01-27T10:36:24;9.30;61.10
78184;DHT22;67442;44.570;18.610;2024-01-27T10:38:55;9.30;61.00
78184;DHT22;67442;44.570;18.610;2024-01-27T10:41:23;9.30;61.60
78184;DHT22;67442;44.570;18.610;2024-01-27T10:43:51;9.40;63.00
78184;DHT22;67442;44.570;18.610;2024-01-27T10:46:24;9.50;64.20
78184;DHT22;67442;44.570;18.610;2024-01-27T10:48:53;9.50;63.40
78184;DHT22;67442;44.570;18.610;2024-01-27T10:51:31;9.60;63.40
78184;DHT22;67442;44.570;18.610;2024-01-27T10:54:03;9.60;60.60
78184;DHT22;67442;44.570;18.610;2024-01-27T10:56:35;9.40;61.60
78184;DHT22;67442;44.570;18.610;2024-01-27T10:59:09;9.40;61.60
78184;DHT22;67442;44.570;18.610;2024-01-27T11:01:56;9.50;62.50
78184;DHT22;67442;44.570;18.610;2024-01-27T11:04:23;9.50;61.10
78184;DHT22;67442;44.570;18.610;2024-01-27T11:06:51;9.40;63.00
78184;DHT22;67442;44.570;18.610;2024-01-27T11:09:19;9.40;62.70
78184;DHT22;67442;44.570;18.610;2024-01-27T11:11:48;9.40;61.10
78184;DHT22;67442;44.570;18.610;2024-01-27T11:14:15;9.40;62.60
78184;DHT22;67442;44.570;18.610;2024-01-27T11:16:42;9.30;62.60
78184;DHT22;67442;44.570;18.610;2024-01-27T11:19:17;9.30;63.80
78184;DHT22;67442;44.570;18.610;2024-01-27T11:21:47;9.30;65.10
78184;DHT22;67442;44.570;18.610;2024-01-27T11:24:18;9.30;63.70
78184;DHT22;67442;44.570;18.610;2024-01-27T11:27:04;9.40;61.80
78184;DHT22;67442;44.570;18.610;2024-01-27T11:29:32;9.60;65.30
78184;DHT22;67442;44.570;18.610;2024-01-27T11:32:03;9.80;63.60
78184;DHT22;67442;44.570;18.610;2024-01-27T11:35:02;9.70;65.20
78184;DHT22;67442;44.570;18.610;2024-01-27T11:37:31;9.90;61.40
78184;DHT22;67442;44.570;18.610;2024-01-27T11:40:07;9.80;64.10
78184;DHT22;67442;44.570;18.610;2024-01-27T11:42:36;9.80;63.20
78184;DHT22;67442;44.570;18.610;2024-01-27T11:45:09;9.90;64.30
78184;DHT22;67442;44.570;18.610;2024-01-27T11:47:40;9.90;64.10
78184;DHT22;67442;44.570;18.610;2024-01-27T11:50:12;9.80;62.60
78184;DHT22;67442;44.570;18.610;2024-01-27T11:52:39;9.70;64.70
78184;DHT22;67442;44.570;18.610;2024-01-27T11:55:08;9.70;64.40
78184;DHT22;67442;44.570;18.610;2024-01-27T11:57:35;9.60;65.30
78184;DHT22;67442;44.570;18.610;2024-01-27T12:00:02;9.50;65.50
78184;DHT22;67442;44.570;18.610;2024-01-27T12:02:30;9.40;65.10
78184;DHT22;67442;44.570;18.610;2024-01-27T12:04:58;9.60;70.70
78184;DHT22;67442;44.570;18.610;2024-01-27T12:07:29;9.70;66.90
78184;DHT22;67442;44.570;18.610;2024-01-27T12:10:00;9.80;67.70
78184;DHT22;67442;44.570;18.610;2024-01-27T12:12:27;9.80;65.40
78184;DHT22;67442;44.570;18.610;2024-01-27T12:14:58;9.90;64.40
78184;DHT22;67442;44.570;18.610;2024-01-27T12:17:28;9.80;65.40
78184;DHT22;67442;44.570;18.610;2024-01-27T12:19:56;9.80;65.90
78184;DHT22;67442;44.570;18.610;2024-01-27T12:22:28;9.70;64.10
78184;DHT22;67442;44.570;18.610;2024-01-27T12:25:07;9.50;66.90
78184;DHT22;67442;44.570;18.610;2024-01-27T12:27:35;9.40;67.10
78184;DHT22;67442;44.570;18.610;2024-01-27T12:30:07;9.40;69.00
78184;DHT22;67442;44.570;18.610;2024-01-27T12:32:34;9.60;71.50
78184;DHT22;67442;44.570;18.610;2024-01-27T12:35:05;9.70;71.00
78184;DHT22;67442;44.570;18.610;2024-01-27T12:37:32;9.80;67.30
78184;DHT22;67442;44.570;18.610;2024-01-27T12:40:22;9.80;67.80
78184;DHT22;67442;44.570;18.610;2024-01-27T12:42:50;9.70;68.60
78184;DHT22;67442;44.570;18.610;2024-01-27T12:45:17;9.80;69.00
78184;DHT22;67442;44.570;18.610;2024-01-27T12:47:45;9.90;66.80
78184;DHT22;67442;44.570;18.610;2024-01-27T12:50:13;10.10;66.80
78184;DHT22;67442;44.570;18.610;2024-01-27T12:52:40;10.20;64.00
78184;DHT22;67442;44.570;18.610;2024-01-27T12:55:09;10.20;63.60
78184;DHT22;67442;44.570;18.610;2024-01-27T12:57:40;10.10;63.80
78184;DHT22;67442;44.570;18.610;2024-01-27T13:00:08;10.00;65.20
78184;DHT22;67442;44.570;18.610;2024-01-27T13:02:37;9.90;62.00
78184;DHT22;67442;44.570;18.610;2024-01-27T13:05:05;9.90;63.80
78184;DHT22;67442;44.570;18.610;2024-01-27T13:07:32;9.90;61.60
78184;DHT22;67442;44.570;18.610;2024-01-27T13:10:04;9.70;60.80
78184;DHT22;67442;44.570;18.610;2024-01-27T13:12:32;9.80;59.70
78184;DHT22;67442;44.570;18.610;2024-01-27T13:15:00;9.80;59.50
78184;DHT22;67442;44.570;18.610;2024-01-27T13:17:27;9.60;57.50
78184;DHT22;67442;44.570;18.610;2024-01-27T13:19:55;9.70;58.20
78184;DHT22;67442;44.570;18.610;2024-01-27T13:22:26;9.70;58.60
78184;DHT22;67442;44.570;18.610;2024-01-27T13:24:54;9.80;57.00
78184;DHT22;67442;44.570;18.610;2024-01-27T13:27:21;9.70;56.20
78184;DHT22;67442;44.570;18.610;2024-01-27T13:29:49;9.70;57.90
78184;DHT22;67442;44.570;18.610;2024-01-27T13:32:17;9.70;58.40
78184;DHT22;67442;44.570;18.610;2024-01-27T13:34:44;9.70;57.40
78184;DHT22;67442;44.570;18.610;2024-01-27T13:37:16;9.70;57.40
78184;DHT22;67442;44.570;18.610;2024-01-27T13:39:48;9.80;55.90
78184;DHT22;67442;44.570;18.610;2024-01-27T13:42:15;9.80;55.60
78184;DHT22;67442;44.570;18.610;2024-01-27T13:44:42;9.90;56.10
78184;DHT22;67442;44.570;18.610;2024-01-27T13:47:15;9.90;56.70
78184;DHT22;67442;44.570;18.610;2024-01-27T13:49:47;9.90;56.20
78184;DHT22;67442;44.570;18.610;2024-01-27T13:52:17;10.00;54.80
78184;DHT22;67442;44.570;18.610;2024-01-27T13:54:45;10.00;54.80
78184;DHT22;67442;44.570;18.610;2024-01-27T13:57:15;9.90;54.30
78184;DHT22;67442;44.570;18.610;2024-01-27T13:59:43;9.80;54.50
78184;DHT22;67442;44.570;18.610;2024-01-27T14:02:11;9.90;56.50
78184;DHT22;67442;44.570;18.610;2024-01-27T14:04:42;9.80;52.60
78184;DHT22;67442;44.570;18.610;2024-01-27T14:07:13;9.80;52.20
78184;DHT22;67442;44.570;18.610;2024-01-27T14:09:41;9.80;52.10
78184;DHT22;67442;44.570;18.610;2024-01-27T14:12:09;9.70;52.70
78184;DHT22;67442;44.570;18.610;2024-01-27T14:14:36;9.60;52.20
78184;DHT22;67442;44.570;18.610;2024-01-27T14:17:07;9.60;54.00
78184;DHT22;67442;44.570;18.610;2024-01-27T14:19:38;9.60;54.20
78184;DHT22;67442;44.570;18.610;2024-01-27T14:22:10;9.70;54.30
78184;DHT22;67442;44.570;18.610;2024-01-27T14:24:41;9.60;56.00
78184;DHT22;67442;44.570;18.610;2024-01-27T14:27:08;9.70;59.20
78184;DHT22;67442;44.570;18.610;2024-01-27T14:29:37;9.80;52.30
78184;DHT22;67442;44.570;18.610;2024-01-27T14:32:08;9.60;52.90
78184;DHT22;67442;44.570;18.610;2024-01-27T14:34:36;9.60;51.20
78184;DHT22;67442;44.570;18.610;2024-01-27T14:37:04;9.50;50.60
78184;DHT22;67442;44.570;18.610;2024-01-27T14:39:35;9.30;51.70
78184;DHT22;67442;44.570;18.610;2024-01-27T14:42:03;9.20;51.40
78184;DHT22;67442;44.570;18.610;2024-01-27T14:44:34;9.10;51.50
78184;DHT22;67442;44.570;18.610;2024-01-27T14:47:05;9.00;51.40
78184;DHT22;67442;44.570;18.610;2024-01-27T14:49:37;9.10;51.20
78184;DHT22;67442;44.570;18.610;2024-01-27T14:52:09;9.10;51.10
78184;DHT22;67442;44.570;18.610;2024-01-27T14:54:36;9.00;50.40
78184;DHT22;67442;44.570;18.610;2024-01-27T14:57:03;9.10;48.20
78184;DHT22;67442;44.570;18.610;2024-01-27T14:59:31;9.10;47.80
78184;DHT22;67442;44.570;18.610;2024-01-27T15:02:01;9.00;48.80
78184;DHT22;67442;44.570;18.610;2024-01-27T15:04:29;8.80;49.20
78184;DHT22;67442;44.570;18.610;2024-01-27T15:07:00;8.80;48.20
78184;DHT22;67442;44.570;18.610;2024-01-27T15:09:31;8.70;49.60
78184;DHT22;67442;44.570;18.610;2024-01-27T15:12:03;8.50;51.10
78184;DHT22;67442;44.570;18.610;2024-01-27T15:14:31;8.40;55.80
78184;DHT22;67442;44.570;18.610;2024-01-27T15:16:59;8.40;53.40
78184;DHT22;67442;44.570;18.610;2024-01-27T15:19:31;8.40;51.60
78184;DHT22;67442;44.570;18.610;2024-01-27T15:22:02;8.30;52.80
78184;DHT22;67442;44.570;18.610;2024-01-27T15:24:28;8.10;56.60
78184;DHT22;67442;44.570;18.610;2024-01-27T15:26:59;8.00;58.70
78184;DHT22;67442;44.570;18.610;2024-01-27T15:29:27;7.90;55.30
78184;DHT22;67442;44.570;18.610;2024-01-27T15:31:54;7.60;57.80
78184;DHT22;67442;44.570;18.610;2024-01-27T15:34:23;7.50;58.90
78184;DHT22;67442;44.570;18.610;2024-01-27T15:36:50;7.40;60.90
78184;DHT22;67442;44.570;18.610;2024-01-27T15:39:18;7.30;66.80
78184;DHT22;67442;44.570;18.610;2024-01-27T15:41:46;7.20;62.40